Time,TemperatureF,DewpointF,PressureIn,WindDirection,WindDirectionDegrees,WindSpeedMPH,WindSpeedGustMPH,Humidity,HourlyPrecipIn,Conditions,Clouds,dailyrainin,SolarRadiationWatts/m^2,SoftwareType,DateUTC
2014-09-18 01:22:00,69.0,35.0,-100.00,SSE,150,5.0,11.0,28,-99.99,,,-99.99,0.000000,,2014-09-18 08:22:00,
2014-09-18 02:12:00,68.0,35.0,-100.00,SSE,159,4.0,10.0,30,-99.99,,,-99.99,0.000000,,2014-09-18 09:12:00,
2014-09-18 02:22:00,68.0,35.0,-100.00,South,169,3.0,7.0,29,-99.99,,,-99.99,0.000000,,2014-09-18 09:22:00,
2014-09-18 03:24:00,60.0,36.0,-100.00,SW,228,3.0,5.0,41,-99.99,,,-99.99,0.000000,,2014-09-18 10:24:00,
2014-09-18 04:22:00,62.0,40.0,-100.00,SSW,197,4.0,7.0,45,-99.99,,,-99.99,0.000000,,2014-09-18 11:22:00,
2014-09-18 05:22:00,59.0,41.0,-100.00,SE,132,3.0,5.0,51,-99.99,,,-99.99,0.000000,,2014-09-18 12:22:00,
2014-09-18 05:52:00,58.0,41.0,-100.00,West,273,1.0,4.0,53,-99.99,,,-99.99,0.000000,,2014-09-18 12:52:00,
2014-09-18 06:00:00,58.0,42.0,-100.00,SSW,206,3.0,7.0,55,-99.99,,,-99.99,0.000000,,2014-09-18 13:00:00,
2014-09-18 06:22:00,57.0,42.0,-100.00,WSW,246,1.0,6.0,56,-99.99,,,-99.99,0.000000,,2014-09-18 13:22:00,
2014-09-18 06:52:00,58.0,42.0,-100.00,SSW,206,3.0,7.0,55,-99.99,,,-99.99,0.000000,,2014-09-18 13:52:00,
2014-09-18 08:12:00,59.0,41.0,-100.00,SSW,203,3.0,6.0,50,-99.99,,,-99.99,63.000000,,2014-09-18 15:12:00,
2014-09-18 08:22:00,62.0,40.0,-100.00,SW,215,4.0,5.0,45,-99.99,,,-99.99,101.000000,,2014-09-18 15:22:00,
2014-09-18 09:14:00,67.0,39.0,-100.00,ESE,119,6.0,9.0,36,-99.99,,,-99.99,279.000000,,2014-09-18 16:14:00,
2014-09-18 09:24:00,68.0,39.0,-100.00,SE,141,8.0,13.0,35,-99.99,,,-99.99,314.000000,,2014-09-18 16:24:00,
2014-09-18 10:13:00,70.0,38.0,-100.00,SSW,206,11.0,23.0,31,-99.99,,,-99.99,480.000000,,2014-09-18 17:13:00,
2014-09-18 10:23:00,70.0,38.0,-100.00,SW,218,13.0,23.0,32,-99.99,,,-99.99,513.000000,,2014-09-18 17:23:00,
2014-09-18 11:22:00,72.0,36.0,-100.00,SSW,212,13.0,21.0,27,-99.99,,,-99.99,759.000000,,2014-09-18 18:22:00,
2014-09-18 12:22:00,73.0,39.0,-100.00,WSW,239,17.0,28.0,30,-99.99,,,-99.99,780.000000,,2014-09-18 19:22:00,
2014-09-18 13:12:00,74.0,39.0,-100.00,WSW,246,18.0,28.0,28,-99.99,,,-99.99,931.000000,,2014-09-18 20:12:00,
2014-09-18 13:23:00,74.0,39.0,-100.00,WSW,243,18.0,29.0,28,-99.99,,,-99.99,917.000000,,2014-09-18 20:23:00,